createdAt,value
2016-02-23T00:00:30.906Z,996.3
2016-02-23T00:01:30.925Z,996.25
2016-02-23T00:02:30.944Z,996.26
2016-02-23T00:03:30.946Z,996.32
2016-02-23T00:04:30.963Z,996.32
2016-02-23T00:05:30.991Z,996.28
2016-02-23T00:06:31.009Z,996.29
2016-02-23T00:07:31.027Z,996.29
2016-02-23T00:08:31.047Z,996.32
2016-02-23T00:09:31.049Z,996.38
2016-02-23T00:10:31.066Z,996.34
2016-02-23T00:11:31.086Z,996.38
2016-02-23T00:12:31.103Z,996.38
2016-02-23T00:13:31.122Z,996.39
2016-02-23T00:14:31.140Z,996.45
2016-02-23T00:15:31.158Z,996.41
2016-02-23T00:16:31.177Z,996.46
2016-02-23T00:17:31.195Z,996.46
2016-02-23T00:18:31.213Z,996.46
2016-02-23T00:19:31.232Z,996.47
2016-02-23T00:20:31.250Z,996.42
2016-02-23T00:21:31.248Z,996.48
2016-02-23T00:22:31.256Z,996.44
2016-02-23T00:23:31.263Z,996.42
2016-02-23T00:24:31.269Z,996.44
2016-02-23T00:25:31.277Z,996.38
2016-02-23T00:26:31.287Z,996.43
2016-02-23T00:27:31.300Z,996.43
2016-02-23T00:28:31.315Z,996.45
2016-02-23T00:29:31.329Z,996.43
2016-02-23T00:30:31.344Z,996.45
2016-02-23T00:31:31.359Z,996.47
2016-02-23T00:32:31.375Z,996.44
2016-02-23T00:33:31.393Z,996.49
2016-02-23T00:34:31.395Z,996.43
2016-02-23T00:35:31.412Z,996.39
2016-02-23T00:36:31.428Z,996.38
2016-02-23T00:37:31.446Z,996.42
2016-02-23T00:38:31.463Z,996.41
2016-02-23T00:39:31.498Z,996.39
2016-02-23T00:40:31.499Z,996.44
2016-02-23T00:41:31.516Z,996.46
2016-02-23T00:42:31.526Z,996.46
2016-02-23T00:43:31.545Z,996.44
2016-02-23T00:44:31.562Z,996.44
2016-02-23T00:45:31.582Z,996.44
2016-02-23T00:46:31.600Z,996.46
2016-02-23T00:47:31.617Z,996.47
2016-02-23T00:48:31.637Z,996.52
2016-02-23T00:49:31.655Z,996.56
2016-02-23T00:50:31.672Z,996.53
2016-02-23T00:51:31.691Z,996.53
2016-02-23T00:52:31.709Z,996.51
2016-02-23T00:53:31.712Z,996.57
2016-02-23T00:54:31.731Z,996.5
2016-02-23T00:55:31.749Z,996.54
2016-02-23T00:56:31.783Z,996.57
2016-02-23T00:57:31.786Z,996.53
2016-02-23T00:58:31.804Z,996.53
2016-02-23T00:59:31.822Z,996.52
2016-02-23T01:00:31.841Z,996.54
2016-02-23T01:01:31.858Z,996.52
2016-02-23T01:02:31.877Z,996.53
2016-02-23T01:03:31.896Z,996.52
2016-02-23T01:04:31.913Z,996.49
2016-02-23T01:05:31.916Z,996.44
2016-02-23T01:06:31.951Z,996.4
2016-02-23T01:07:31.953Z,996.38
2016-02-23T01:08:31.971Z,996.4
2016-02-23T01:09:31.990Z,996.41
2016-02-23T01:10:32.007Z,996.41
2016-02-23T01:11:32.027Z,996.4
2016-02-23T01:12:32.045Z,996.39
2016-02-23T01:13:32.062Z,996.44
2016-02-23T01:14:32.081Z,996.4
2016-02-23T01:15:32.115Z,996.42
2016-02-23T01:16:32.103Z,996.42
2016-02-23T01:17:32.120Z,996.45
2016-02-23T01:18:32.139Z,996.42
2016-02-23T01:19:32.157Z,996.44
2016-02-23T01:20:32.176Z,996.45
2016-02-23T01:21:32.194Z,996.44
2016-02-23T01:22:32.212Z,996.42
2016-02-23T01:23:32.230Z,996.41
2016-02-23T01:24:32.250Z,996.44
2016-02-23T01:25:32.252Z,996.42
2016-02-23T01:26:32.269Z,996.41
2016-02-23T01:27:32.288Z,996.45
2016-02-23T01:28:32.306Z,996.47
2016-02-23T01:29:32.325Z,996.43
2016-02-23T01:30:32.343Z,996.44
2016-02-23T01:31:32.361Z,996.42
2016-02-23T01:32:32.380Z,996.44
2016-02-23T01:33:32.399Z,996.45
2016-02-23T01:34:32.401Z,996.45
2016-02-23T01:35:32.418Z,996.42
2016-02-23T01:36:32.438Z,996.38
2016-02-23T01:37:32.455Z,996.39
2016-02-23T01:38:32.474Z,996.42
2016-02-23T01:39:32.493Z,996.4
2016-02-23T01:40:32.510Z,996.43
2016-02-23T01:41:32.529Z,996.4
2016-02-23T01:42:32.548Z,996.42
2016-02-23T01:43:32.565Z,996.4
2016-02-23T01:44:32.568Z,996.42
2016-02-23T01:45:32.587Z,996.44
2016-02-23T01:46:32.604Z,996.41
2016-02-23T01:47:32.623Z,996.37
2016-02-23T01:48:32.657Z,996.4
2016-02-23T01:49:32.659Z,996.39
2016-02-23T01:50:32.678Z,996.39
2016-02-23T01:51:32.697Z,996.38
2016-02-23T01:52:32.714Z,996.37
2016-02-23T01:53:32.733Z,996.39
2016-02-23T01:54:32.736Z,996.36
2016-02-23T01:55:32.769Z,996.33
2016-02-23T01:56:32.773Z,996.42
2016-02-23T01:57:32.791Z,996.34
2016-02-23T01:58:32.808Z,996.33
2016-02-23T01:59:32.828Z,996.34
2016-02-23T02:00:32.846Z,996.3
2016-02-23T02:01:32.863Z,996.34
2016-02-23T02:02:32.882Z,996.29
2016-02-23T02:03:32.885Z,996.31
2016-02-23T02:04:32.903Z,996.34
2016-02-23T02:05:32.922Z,996.29
2016-02-23T02:06:32.940Z,996.28
2016-02-23T02:07:32.958Z,996.31
2016-02-23T02:08:32.977Z,996.28
2016-02-23T02:09:32.995Z,996.27
2016-02-23T02:10:33.012Z,996.28
2016-02-23T02:11:33.032Z,996.28
2016-02-23T02:12:33.049Z,996.28
2016-02-23T02:13:33.052Z,996.28
2016-02-23T02:14:33.071Z,996.29
2016-02-23T02:15:33.089Z,996.31
2016-02-23T02:16:33.107Z,996.27
2016-02-23T02:17:33.126Z,996.3
2016-02-23T02:18:33.144Z,996.28
2016-02-23T02:19:33.162Z,996.34
2016-02-23T02:20:33.181Z,996.33
2016-02-23T02:21:33.199Z,996.37
2016-02-23T02:22:33.201Z,996.32
2016-02-23T02:23:33.220Z,996.29
2016-02-23T02:24:33.239Z,996.25
2016-02-23T02:25:33.256Z,996.29
2016-02-23T02:26:33.275Z,996.28
2016-02-23T02:27:33.294Z,996.29
2016-02-23T02:28:33.311Z,996.25
2016-02-23T02:29:33.330Z,996.28
2016-02-23T02:30:33.338Z,996.23
2016-02-23T02:31:33.355Z,996.27
2016-02-23T02:32:33.374Z,996.25
2016-02-23T02:33:33.393Z,996.29
2016-02-23T02:34:33.410Z,996.28
2016-02-23T02:35:33.429Z,996.28
2016-02-23T02:36:33.447Z,996.3
2016-02-23T02:37:33.465Z,996.27
2016-02-23T02:38:33.485Z,996.32
2016-02-23T02:39:33.487Z,996.33
2016-02-23T02:40:33.504Z,996.32
2016-02-23T02:41:33.524Z,996.32
2016-02-23T02:42:33.542Z,996.32
2016-02-23T02:43:33.559Z,996.32
2016-02-23T02:44:33.578Z,996.32
2016-02-23T02:45:33.596Z,996.39
2016-02-23T02:46:33.598Z,996.35
2016-02-23T02:47:33.618Z,996.37
2016-02-23T02:48:33.636Z,996.38
2016-02-23T02:49:33.653Z,996.38
2016-02-23T02:50:33.673Z,996.37
2016-02-23T02:51:33.691Z,996.39
2016-02-23T02:52:33.708Z,996.39
2016-02-23T02:53:33.728Z,996.41
2016-02-23T02:54:33.730Z,996.46
2016-02-23T02:55:33.748Z,996.43
2016-02-23T02:56:33.767Z,996.47
2016-02-23T02:57:33.785Z,996.48
2016-02-23T02:58:33.803Z,996.48
2016-02-23T02:59:33.822Z,996.5
2016-02-23T03:00:33.840Z,996.44
2016-02-23T03:01:33.858Z,996.46
2016-02-23T03:02:33.877Z,996.43
2016-02-23T03:03:33.895Z,996.47
2016-02-23T03:04:33.897Z,996.43
2016-02-23T03:05:33.916Z,996.49
2016-02-23T03:06:33.935Z,996.48
2016-02-23T03:07:33.952Z,996.49
2016-02-23T03:08:33.971Z,996.48
2016-02-23T03:09:33.989Z,996.51
2016-02-23T03:10:34.007Z,996.54
2016-02-23T03:11:34.025Z,996.54
2016-02-23T03:12:34.029Z,996.53
2016-02-23T03:13:34.046Z,996.54
2016-02-23T03:14:34.065Z,996.54
2016-02-23T03:15:34.084Z,996.56
2016-02-23T03:16:34.101Z,996.55
2016-02-23T03:17:34.120Z,996.51
2016-02-23T03:18:34.139Z,996.53
2016-02-23T03:19:34.156Z,996.57
2016-02-23T03:20:34.159Z,996.55
2016-02-23T03:21:34.178Z,996.54
2016-02-23T03:22:34.195Z,996.57
2016-02-23T03:23:34.215Z,996.61
2016-02-23T03:24:34.233Z,996.54
2016-02-23T03:25:34.250Z,996.57
2016-02-23T03:26:34.270Z,996.55
2016-02-23T03:27:34.288Z,996.61
2016-02-23T03:28:34.306Z,996.61
2016-02-23T03:29:34.308Z,996.62
2016-02-23T03:30:34.327Z,996.62
2016-02-23T03:31:34.344Z,996.6
2016-02-23T03:32:34.364Z,996.59
2016-02-23T03:33:34.382Z,996.59
2016-02-23T03:34:34.399Z,996.61
2016-02-23T03:35:34.419Z,996.57
2016-02-23T03:36:34.437Z,996.61
2016-02-23T03:37:34.455Z,996.55
2016-02-23T03:38:34.473Z,996.58
2016-02-23T03:39:34.476Z,996.54
2016-02-23T03:40:34.494Z,996.59
2016-02-23T03:41:34.513Z,996.57
2016-02-23T03:42:34.531Z,996.55
2016-02-23T03:43:34.549Z,996.54
2016-02-23T03:44:34.567Z,996.57
2016-02-23T03:45:34.571Z,996.55
2016-02-23T03:46:34.589Z,996.59
2016-02-23T03:47:34.606Z,996.62
2016-02-23T03:48:34.626Z,996.64
2016-02-23T03:49:34.643Z,996.66
2016-02-23T03:50:34.662Z,996.71
2016-02-23T03:51:34.681Z,996.71
2016-02-23T03:52:34.683Z,996.71
2016-02-23T03:53:34.701Z,996.69
2016-02-23T03:54:34.720Z,996.67
2016-02-23T03:55:34.738Z,996.64
2016-02-23T03:56:34.755Z,996.63
2016-02-23T03:57:34.775Z,996.67
2016-02-23T03:58:34.792Z,996.68
2016-02-23T03:59:34.811Z,996.65
2016-02-23T04:00:34.830Z,996.66
2016-02-23T04:01:34.847Z,996.65
2016-02-23T04:02:34.850Z,996.7
2016-02-23T04:03:34.869Z,996.67
2016-02-23T04:04:34.887Z,996.68
2016-02-23T04:05:34.905Z,996.69
2016-02-23T04:06:34.924Z,996.71
2016-02-23T04:07:34.941Z,996.73
2016-02-23T04:08:34.960Z,996.75
2016-02-23T04:09:34.979Z,996.74
2016-02-23T04:10:34.982Z,996.79
2016-02-23T04:11:34.999Z,996.79
2016-02-23T04:12:35.018Z,996.83
2016-02-23T04:13:35.037Z,996.85
2016-02-23T04:14:35.054Z,996.82
2016-02-23T04:15:35.073Z,996.84
2016-02-23T04:16:35.076Z,996.82
2016-02-23T04:17:35.093Z,996.85
2016-02-23T04:18:35.112Z,996.83
2016-02-23T04:19:35.131Z,996.83
2016-02-23T04:20:35.148Z,996.8
2016-02-23T04:21:35.167Z,996.82
2016-02-23T04:22:35.186Z,996.81
2016-02-23T04:23:35.203Z,996.85
2016-02-23T04:24:35.206Z,996.79
2016-02-23T04:25:35.225Z,996.77
2016-02-23T04:26:35.242Z,996.75
2016-02-23T04:27:35.262Z,996.73
2016-02-23T04:28:35.280Z,996.75
2016-02-23T04:29:35.297Z,996.76
2016-02-23T04:30:35.317Z,996.77
2016-02-23T04:31:35.335Z,996.77
2016-02-23T04:32:35.338Z,996.74
2016-02-23T04:33:35.356Z,996.72
2016-02-23T04:34:35.374Z,996.68
2016-02-23T04:35:35.392Z,996.71
2016-02-23T04:36:35.411Z,996.66
2016-02-23T04:37:35.429Z,996.69
2016-02-23T04:38:35.446Z,996.75
2016-02-23T04:39:35.465Z,996.79
2016-02-23T04:40:35.468Z,996.78
2016-02-23T04:41:35.487Z,996.76
2016-02-23T04:42:35.504Z,996.75
2016-02-23T04:43:35.523Z,996.78
2016-02-23T04:44:35.541Z,996.77
2016-02-23T04:45:35.560Z,996.75
2016-02-23T04:46:35.579Z,996.74
2016-02-23T04:47:35.581Z,996.73
2016-02-23T04:48:35.598Z,996.69
2016-02-23T04:49:35.618Z,996.68
2016-02-23T04:50:35.636Z,996.68
2016-02-23T04:51:35.653Z,996.72
2016-02-23T04:52:35.673Z,996.72
2016-02-23T04:53:35.690Z,996.68
2016-02-23T04:54:35.693Z,996.68
2016-02-23T04:55:35.712Z,996.71
2016-02-23T04:56:35.730Z,996.72
2016-02-23T04:57:35.748Z,996.69
2016-02-23T04:58:35.767Z,996.63
2016-02-23T04:59:35.785Z,996.64
2016-02-23T05:00:35.803Z,996.64
2016-02-23T05:01:35.821Z,996.63
2016-02-23T05:02:35.825Z,996.67
2016-02-23T05:03:35.842Z,996.63
2016-02-23T05:04:35.861Z,996.65
2016-02-23T05:05:35.879Z,996.59
2016-02-23T05:06:35.897Z,996.6
2016-02-23T05:07:35.916Z,996.53
2016-02-23T05:08:35.935Z,996.54
2016-02-23T05:09:35.937Z,996.51
2016-02-23T05:10:35.954Z,996.49
2016-02-23T05:11:35.974Z,996.46
2016-02-23T05:12:35.991Z,996.52
2016-02-23T05:13:36.041Z,996.44
2016-02-23T05:14:36.029Z,996.48
2016-02-23T05:15:36.046Z,996.43
2016-02-23T05:16:36.049Z,996.47
2016-02-23T05:17:36.084Z,996.45
2016-02-23T05:18:36.086Z,996.39
2016-02-23T05:19:36.104Z,996.46
2016-02-23T05:20:36.123Z,996.49
2016-02-23T05:21:36.140Z,996.5
2016-02-23T05:22:36.159Z,996.45
2016-02-23T05:23:36.178Z,996.47
2016-02-23T05:24:36.181Z,996.5
2016-02-23T05:25:36.198Z,996.48
2016-02-23T05:26:36.217Z,996.48
2016-02-23T05:27:36.235Z,996.51
2016-02-23T05:28:36.253Z,996.47
2016-02-23T05:29:36.272Z,996.47
2016-02-23T05:30:36.275Z,996.47
2016-02-23T05:31:36.308Z,996.51
2016-02-23T05:32:36.311Z,996.51
2016-02-23T05:33:36.330Z,996.5
2016-02-23T05:34:36.347Z,996.52
2016-02-23T05:35:36.366Z,996.47
2016-02-23T05:36:36.385Z,996.48
2016-02-23T05:37:36.403Z,996.53
2016-02-23T05:38:36.405Z,996.57
2016-02-23T05:39:36.424Z,996.55
2016-02-23T05:40:36.441Z,996.51
2016-02-23T05:41:36.461Z,996.58
2016-02-23T05:42:36.479Z,996.53
2016-02-23T05:43:36.497Z,996.56
2016-02-23T05:44:36.515Z,996.57
2016-02-23T05:45:36.518Z,996.57
2016-02-23T05:46:36.537Z,996.57
2016-02-23T05:47:36.554Z,996.63
2016-02-23T05:48:36.573Z,996.62
2016-02-23T05:49:36.591Z,996.6
2016-02-23T05:50:36.609Z,996.64
2016-02-23T05:51:36.613Z,996.61
2016-02-23T05:52:36.646Z,996.58
2016-02-23T05:53:36.648Z,996.59
2016-02-23T05:54:36.667Z,996.67
2016-02-23T05:55:36.686Z,996.66
2016-02-23T05:56:36.703Z,996.71
2016-02-23T05:57:36.706Z,996.76
2016-02-23T05:58:36.725Z,996.77
2016-02-23T05:59:36.742Z,996.76
2016-02-23T06:00:36.762Z,996.78
2016-02-23T06:01:36.795Z,996.75
2016-02-23T06:02:36.797Z,996.76
2016-02-23T06:03:36.816Z,996.8
2016-02-23T06:04:36.835Z,996.84
2016-02-23T06:05:36.838Z,996.79
2016-02-23T06:06:36.855Z,996.81
2016-02-23T06:07:36.874Z,996.78
2016-02-23T06:08:36.892Z,996.82
2016-02-23T06:09:36.911Z,996.81
2016-02-23T06:10:39.929Z,996.83
2016-02-23T06:11:36.944Z,996.82
2016-02-23T06:12:36.963Z,996.81
2016-02-23T06:13:36.966Z,996.78
2016-02-23T06:14:36.984Z,996.79
2016-02-23T06:15:37.002Z,996.78
2016-02-23T06:16:37.021Z,996.79
2016-02-23T06:17:37.038Z,996.84
2016-02-23T06:18:37.042Z,996.78
2016-02-23T06:19:37.076Z,996.83
2016-02-23T06:20:37.079Z,996.79
2016-02-23T06:21:37.096Z,996.83
2016-02-23T06:22:37.115Z,996.78
2016-02-23T06:23:37.133Z,996.81
2016-02-23T06:24:37.136Z,996.85
2016-02-23T06:25:37.170Z,996.83
2016-02-23T06:26:37.172Z,996.84
2016-02-23T06:27:37.191Z,996.79
2016-02-23T06:28:37.209Z,996.81
2016-02-23T06:29:37.228Z,996.8
2016-02-23T06:30:37.230Z,996.84
2016-02-23T06:31:37.248Z,996.86
2016-02-23T06:32:37.267Z,996.84
2016-02-23T06:33:37.285Z,996.82
2016-02-23T06:34:37.303Z,996.83
2016-02-23T06:35:37.322Z,996.83
2016-02-23T06:36:37.340Z,996.81
2016-02-23T06:37:37.359Z,996.83
2016-02-23T06:38:37.361Z,996.81
2016-02-23T06:39:37.379Z,996.83
2016-02-23T06:40:37.397Z,996.85
2016-02-23T06:41:37.416Z,996.86
2016-02-23T06:42:37.435Z,996.89
2016-02-23T06:43:37.452Z,996.89
2016-02-23T06:44:37.455Z,996.92
2016-02-23T06:45:37.474Z,996.9
2016-02-23T06:46:37.491Z,996.94
2016-02-23T06:47:37.510Z,996.92
2016-02-23T06:48:37.529Z,996.9
2016-02-23T06:49:37.546Z,996.88
2016-02-23T06:50:37.565Z,996.92
2016-02-23T06:51:37.568Z,996.87
2016-02-23T06:52:37.586Z,996.88
2016-02-23T06:53:37.604Z,996.86
2016-02-23T06:54:37.623Z,996.92
2016-02-23T06:55:37.640Z,996.9
2016-02-23T06:56:37.660Z,996.93
2016-02-23T06:57:37.662Z,996.96
2016-02-23T06:58:37.680Z,996.91
2016-02-23T06:59:37.699Z,996.94
2016-02-23T07:00:37.717Z,996.95
2016-02-23T07:01:37.735Z,996.96
2016-02-23T07:02:37.753Z,996.96
2016-02-23T07:03:37.772Z,996.93
2016-02-23T07:04:37.775Z,996.94
2016-02-23T07:05:37.793Z,996.95
2016-02-23T07:06:37.811Z,996.92
2016-02-23T07:07:37.830Z,996.95
2016-02-23T07:08:37.847Z,996.89
2016-02-23T07:09:37.867Z,996.96
2016-02-23T07:10:37.885Z,996.97
2016-02-23T07:11:37.902Z,996.92
2016-02-23T07:12:37.905Z,996.99
2016-02-23T07:13:37.924Z,997.03
2016-02-23T07:14:37.942Z,997.02
2016-02-23T07:15:37.960Z,997.02
2016-02-23T07:16:37.979Z,997
2016-02-23T07:17:37.982Z,997.02
2016-02-23T07:18:38.015Z,997.05
2016-02-23T07:19:38.018Z,997.1
2016-02-23T07:20:38.037Z,997.07
2016-02-23T07:21:38.054Z,997.1
2016-02-23T07:22:38.074Z,997.15
2016-02-23T07:23:38.076Z,997.11
2016-02-23T07:24:38.093Z,997.1
2016-02-23T07:25:38.112Z,997.13
2016-02-23T07:26:38.131Z,997.1
2016-02-23T07:27:38.148Z,997.15
2016-02-23T07:28:38.167Z,997.09
2016-02-23T07:29:38.186Z,997.12
2016-02-23T07:30:38.189Z,997.11
2016-02-23T07:31:38.207Z,997.1
2016-02-23T07:32:38.226Z,997.17
2016-02-23T07:33:38.243Z,997.15
2016-02-23T07:34:38.261Z,997.14
2016-02-23T07:35:38.281Z,997.09
2016-02-23T07:36:38.298Z,997.14
2016-02-23T07:37:38.317Z,997.13
2016-02-23T07:38:38.319Z,997.13
2016-02-23T07:39:38.338Z,997.13
2016-02-23T07:40:38.356Z,997.14
2016-02-23T07:41:38.375Z,997.16
2016-02-23T07:42:38.392Z,997.14
2016-02-23T07:43:38.411Z,997.13
2016-02-23T07:44:38.414Z,997.11
2016-02-23T07:45:38.432Z,997.11
2016-02-23T07:46:38.449Z,997.1
2016-02-23T07:47:38.468Z,997.12
2016-02-23T07:48:38.488Z,997.12
2016-02-23T07:49:38.505Z,997.12
2016-02-23T07:50:38.524Z,997.18
2016-02-23T07:51:38.526Z,997.19
2016-02-23T07:52:38.544Z,997.16
2016-02-23T07:53:38.563Z,997.19
2016-02-23T07:54:38.581Z,997.22
2016-02-23T07:55:38.599Z,997.21
2016-02-23T07:56:38.618Z,997.2
2016-02-23T07:57:38.637Z,997.19
2016-02-23T07:58:38.654Z,997.21
2016-02-23T07:59:38.657Z,997.22
2016-02-23T08:00:38.676Z,997.19
2016-02-23T08:01:38.693Z,997.23
2016-02-23T08:02:38.712Z,997.22
2016-02-23T08:03:38.731Z,997.23
2016-02-23T08:04:38.748Z,997.22
2016-02-23T08:05:38.766Z,997.27
2016-02-23T08:06:38.769Z,997.23
2016-02-23T08:07:38.788Z,997.27
2016-02-23T08:08:38.806Z,997.25
2016-02-23T08:09:38.825Z,997.23
2016-02-23T08:10:38.842Z,997.23
2016-02-23T08:11:38.861Z,997.26
2016-02-23T08:12:38.895Z,997.24
2016-02-23T08:13:38.882Z,997.26
2016-02-23T08:14:38.900Z,997.29
2016-02-23T08:15:38.918Z,997.28
2016-02-23T08:16:38.937Z,997.31
2016-02-23T08:17:38.955Z,997.34
2016-02-23T08:18:38.974Z,997.3
2016-02-23T08:19:38.992Z,997.28
2016-02-23T08:20:39.010Z,997.3
2016-02-23T08:21:39.013Z,997.31
2016-02-23T08:22:39.032Z,997.25
2016-02-23T08:23:39.049Z,997.27
2016-02-23T08:24:39.068Z,997.27
2016-02-23T08:25:39.087Z,997.21
2016-02-23T08:26:39.104Z,997.22
2016-02-23T08:27:39.123Z,997.26
2016-02-23T08:28:39.125Z,997.22
2016-02-23T08:29:39.160Z,997.26
2016-02-23T08:30:39.162Z,997.29
2016-02-23T08:31:39.181Z,997.27
2016-02-23T08:32:39.198Z,997.29
2016-02-23T08:33:39.218Z,997.29
2016-02-23T08:34:39.236Z,997.3
2016-02-23T08:35:39.253Z,997.3
2016-02-23T08:36:39.257Z,997.35
2016-02-23T08:37:39.275Z,997.37
2016-02-23T08:38:39.293Z,997.41
2016-02-23T08:39:39.311Z,997.39
2016-02-23T08:40:39.330Z,997.41
2016-02-23T08:41:39.348Z,997.37
2016-02-23T08:42:39.367Z,997.4
2016-02-23T08:43:39.385Z,997.43
2016-02-23T08:44:39.388Z,997.44
2016-02-23T08:45:39.406Z,997.4
2016-02-23T08:46:39.424Z,997.38
2016-02-23T08:47:39.442Z,997.4
2016-02-23T08:48:39.461Z,997.43
2016-02-23T08:49:39.479Z,997.38
2016-02-23T08:50:39.497Z,997.36
2016-02-23T08:51:39.515Z,997.4
2016-02-23T08:52:39.534Z,997.41
2016-02-23T08:53:39.537Z,997.4
2016-02-23T08:54:39.571Z,997.39
2016-02-23T08:55:39.573Z,997.37
2016-02-23T08:56:39.591Z,997.37
2016-02-23T08:57:39.610Z,997.35
2016-02-23T08:58:39.628Z,997.34
2016-02-23T08:59:39.646Z,997.36
2016-02-23T09:00:39.665Z,997.3
2016-02-23T09:01:39.672Z,997.33
2016-02-23T09:02:39.690Z,997.31
2016-02-23T09:03:39.709Z,997.26
2016-02-23T09:04:39.728Z,997.33
2016-02-23T09:05:39.750Z,997.31
2016-02-23T09:06:39.769Z,997.33
2016-02-23T09:07:39.787Z,997.33
2016-02-23T09:08:39.790Z,997.31
2016-02-23T09:09:39.808Z,997.28
2016-02-23T09:10:39.827Z,997.31
2016-02-23T09:11:39.845Z,997.31
2016-02-23T09:12:39.864Z,997.31
2016-02-23T09:13:39.882Z,997.33
2016-02-23T09:14:39.900Z,997.33
2016-02-23T09:15:39.919Z,997.38
2016-02-23T09:16:39.936Z,997.34
2016-02-23T09:17:39.939Z,997.34
2016-02-23T09:18:39.958Z,997.35
2016-02-23T09:19:39.976Z,997.33
2016-02-23T09:20:39.994Z,997.37
2016-02-23T09:21:40.013Z,997.35
2016-02-23T09:22:40.031Z,997.4
2016-02-23T09:23:40.049Z,997.38
2016-02-23T09:24:40.068Z,997.42
2016-02-23T09:25:40.086Z,997.42
2016-02-23T09:26:40.104Z,997.44
2016-02-23T09:27:40.107Z,997.44
2016-02-23T09:28:40.120Z,997.48
2016-02-23T09:29:40.125Z,997.45
2016-02-23T09:30:40.131Z,997.48
2016-02-23T09:31:40.137Z,997.46
2016-02-23T09:32:40.142Z,997.54
2016-02-23T09:33:40.152Z,997.58
2016-02-23T09:34:40.165Z,997.57
2016-02-23T09:35:40.179Z,997.57
2016-02-23T09:36:40.192Z,997.6
2016-02-23T09:37:40.206Z,997.58
2016-02-23T09:38:40.205Z,997.63
2016-02-23T09:39:40.238Z,997.56
2016-02-23T09:40:40.239Z,997.61
2016-02-23T09:41:40.254Z,997.6
2016-02-23T09:42:40.272Z,997.54
2016-02-23T09:43:40.288Z,997.53
2016-02-23T09:44:40.306Z,997.53
2016-02-23T09:45:40.340Z,997.54
2016-02-23T09:46:40.342Z,997.58
2016-02-23T09:47:40.360Z,997.58
2016-02-23T09:48:40.378Z,997.64
2016-02-23T09:49:40.396Z,997.61
2016-02-23T09:50:40.398Z,997.62
2016-02-23T09:51:40.416Z,997.64
2016-02-23T09:52:40.434Z,997.63
2016-02-23T09:53:40.452Z,997.66
2016-02-23T09:54:40.486Z,997.6
2016-02-23T09:55:40.489Z,997.65
2016-02-23T09:56:40.507Z,997.64
2016-02-23T09:57:40.526Z,997.61
2016-02-23T09:58:40.560Z,997.62
2016-02-23T09:59:40.562Z,997.63
2016-02-23T10:00:40.580Z,997.63
2016-02-23T10:01:40.599Z,997.64
2016-02-23T10:02:40.618Z,997.67
2016-02-23T10:03:40.620Z,997.61
2016-02-23T10:04:40.638Z,997.62
2016-02-23T10:05:40.673Z,997.61
2016-02-23T10:06:40.675Z,997.61
2016-02-23T10:07:40.693Z,997.61
2016-02-23T10:08:40.712Z,997.57
2016-02-23T10:09:40.729Z,997.55
2016-02-23T10:10:40.748Z,997.61
2016-02-23T10:11:40.767Z,997.54
2016-02-23T10:12:40.784Z,997.53
2016-02-23T10:13:40.803Z,997.57
2016-02-23T10:14:40.822Z,997.56
2016-02-23T10:15:40.840Z,997.58
2016-02-23T10:16:40.858Z,997.59
2016-02-23T10:17:40.861Z,997.57
2016-02-23T10:18:40.879Z,997.61
2016-02-23T10:19:40.897Z,997.63
2016-02-23T10:20:40.916Z,997.63
2016-02-23T10:21:40.933Z,997.67
2016-02-23T10:22:40.953Z,997.64
2016-02-23T10:23:40.971Z,997.67
2016-02-23T10:24:40.989Z,997.66
2016-02-23T10:25:41.007Z,997.63
2016-02-23T10:26:41.041Z,997.68
2016-02-23T10:27:41.044Z,997.69
2016-02-23T10:28:41.062Z,997.71
2016-02-23T10:29:41.080Z,997.74
2016-02-23T10:30:41.099Z,997.7
2016-02-23T10:31:41.117Z,997.72
2016-02-23T10:32:41.135Z,997.71
2016-02-23T10:33:41.154Z,997.75
2016-02-23T10:34:41.172Z,997.75
2016-02-23T10:35:41.174Z,997.75
2016-02-23T10:36:41.209Z,997.77
2016-02-23T10:37:41.227Z,997.75
2016-02-23T10:38:41.230Z,997.76
2016-02-23T10:39:41.248Z,997.74
2016-02-23T10:40:41.267Z,997.71
2016-02-23T10:41:41.285Z,997.7
2016-02-23T10:42:41.303Z,997.68
2016-02-23T10:43:41.321Z,997.7
2016-02-23T10:44:41.339Z,997.77
2016-02-23T10:45:41.358Z,997.75
2016-02-23T10:46:41.376Z,997.76
2016-02-23T10:47:41.411Z,997.77
2016-02-23T10:48:41.413Z,997.76
2016-02-23T10:49:41.431Z,997.74
2016-02-23T10:50:41.450Z,997.74
2016-02-23T10:51:41.467Z,997.72
2016-02-23T10:52:41.486Z,997.71
2016-02-23T10:53:41.505Z,997.72
2016-02-23T10:54:41.522Z,997.69
2016-02-23T10:55:41.541Z,997.66
2016-02-23T10:56:41.560Z,997.68
2016-02-23T10:57:41.578Z,997.69
2016-02-23T10:58:41.581Z,997.68
2016-02-23T10:59:41.614Z,997.71
2016-02-23T11:00:41.616Z,997.67
2016-02-23T11:01:41.652Z,997.64
2016-02-23T11:02:41.654Z,997.68
2016-02-23T11:03:41.687Z,997.67
2016-02-23T11:04:41.690Z,997.67
2016-02-23T11:05:41.709Z,997.69
2016-02-23T11:06:41.727Z,997.64
2016-02-23T11:07:41.746Z,997.62
2016-02-23T11:08:41.763Z,997.63
2016-02-23T11:09:41.782Z,997.61
2016-02-23T11:10:41.801Z,997.59
2016-02-23T11:11:41.819Z,997.54
2016-02-23T11:12:41.837Z,997.61
2016-02-23T11:13:41.856Z,997.57
2016-02-23T11:14:41.873Z,997.59
2016-02-23T11:15:41.892Z,997.61
2016-02-23T11:16:41.909Z,997.53
2016-02-23T11:17:41.928Z,997.5
2016-02-23T11:18:41.947Z,997.5
2016-02-23T11:19:41.965Z,997.47
2016-02-23T11:20:41.983Z,997.48
2016-02-23T11:21:42.002Z,997.42
2016-02-23T11:22:42.020Z,997.39
2016-02-23T11:23:42.038Z,997.39
2016-02-23T11:24:42.056Z,997.33
2016-02-23T11:25:42.075Z,997.33
2016-02-23T11:26:42.078Z,997.31
2016-02-23T11:27:42.111Z,997.29
2016-02-23T11:28:42.130Z,997.32
2016-02-23T11:29:42.149Z,997.31
2016-02-23T11:30:42.166Z,997.29
2016-02-23T11:31:42.186Z,997.32
2016-02-23T11:32:42.203Z,997.27
2016-02-23T11:33:42.222Z,997.26
2016-02-23T11:34:42.224Z,997.25
2016-02-23T11:35:42.258Z,997.21
2016-02-23T11:36:42.260Z,997.16
2016-02-23T11:37:42.296Z,997.16
2016-02-23T11:38:42.298Z,997.14
2016-02-23T11:39:42.332Z,997.12
2016-02-23T11:40:42.349Z,997.14
2016-02-23T11:41:42.352Z,997.05
2016-02-23T11:42:42.370Z,997.09
2016-02-23T11:43:42.389Z,997.09
2016-02-23T11:44:42.408Z,997.06
2016-02-23T11:45:42.426Z,997.05
2016-02-23T11:46:42.445Z,997.12
2016-02-23T11:47:42.462Z,997.09
2016-02-23T11:48:42.481Z,997.13
2016-02-23T11:49:42.498Z,997.15
2016-02-23T11:50:42.517Z,997.16
2016-02-23T11:51:42.535Z,997.15
2016-02-23T11:52:42.554Z,997.13
2016-02-23T11:53:42.590Z,997.15
2016-02-23T11:54:42.593Z,997.12
2016-02-23T11:55:42.613Z,997.13
2016-02-23T11:56:42.639Z,997.09
2016-02-23T11:57:42.642Z,997.08
2016-02-23T11:58:42.676Z,997.02
2016-02-23T11:59:42.709Z,997
2016-02-23T12:00:49.150Z,997.05
2016-02-23T12:01:42.715Z,997.06
2016-02-23T12:02:42.734Z,997.06
2016-02-23T12:03:42.751Z,997.04
2016-02-23T12:04:42.786Z,997.07
2016-02-23T12:05:42.804Z,997.07
2016-02-23T12:06:42.809Z,997.08
2016-02-23T12:07:42.827Z,997.05
2016-02-23T12:08:42.845Z,997.02
2016-02-23T12:09:42.863Z,996.99
2016-02-23T12:10:42.897Z,996.99
2016-02-23T12:11:42.899Z,997.02
2016-02-23T12:12:42.918Z,997.02
2016-02-23T12:13:42.936Z,997
2016-02-23T12:14:42.954Z,997.01
2016-02-23T12:15:42.988Z,997.03
2016-02-23T12:16:42.991Z,997.01
2016-02-23T12:17:43.009Z,997
2016-02-23T12:18:43.044Z,996.99
2016-02-23T12:19:43.063Z,997
2016-02-23T12:20:43.065Z,997
2016-02-23T12:21:43.083Z,996.93
2016-02-23T12:22:43.117Z,996.91
2016-02-23T12:23:43.135Z,996.91
2016-02-23T12:24:43.153Z,996.89
2016-02-23T12:25:43.173Z,996.89
2016-02-23T12:26:43.191Z,996.89
2016-02-23T12:27:43.209Z,996.88
2016-02-23T12:28:43.227Z,996.82
2016-02-23T12:29:43.245Z,996.86
2016-02-23T12:30:43.264Z,996.79